Time;durP1;ratioP1;P1;durP2;ratioP2;P2;SDS_P1;SDS_P2;PMS_P1;PMS_P2;Temp;Humidity;BMP_temperature;BMP_pressure;BME280_temperature;BME280_humidity;BME280_pressure;Samples;Min_cycle;Max_cycle;Signal;HPM_P1;HPM_P2
2023/10/29 00:02:05;;;;;;;5.50;1.90;;;;;;;10.23;100.00;99410.34;6275887;28;20052;-78
2023/10/29 00:05:06;;;;;;;2.53;1.67;;;;;;;10.25;100.00;99398.78;6275935;28;20071;-78
2023/10/29 00:08:09;;;;;;;6.90;2.08;;;;;;;10.26;100.00;99391.75;6276198;28;20049;-78
2023/10/29 00:11:13;;;;;;;4.05;2.10;;;;;;;10.26;100.00;99389.13;6276086;28;20147;-78
2023/10/29 00:14:14;;;;;;;2.65;1.73;;;;;;;10.26;100.00;99383.88;6275922;28;20045;-78
2023/10/29 00:17:16;;;;;;;6.90;1.60;;;;;;;10.25;100.00;99396.16;6275935;28;20064;-79
2023/10/29 00:20:17;;;;;;;3.15;1.63;;;;;;;10.23;100.00;99398.06;6275875;28;20053;-78
2023/10/29 00:23:19;;;;;;;5.38;2.20;;;;;;;10.25;100.00;99390.09;6275457;28;20052;-78
2023/10/29 00:26:21;;;;;;;4.50;1.73;;;;;;;10.25;100.00;99384.84;6275629;28;20468;-79
2023/10/29 00:29:23;;;;;;;6.38;1.75;;;;;;;10.27;100.00;99391.66;6275652;28;20052;-79
2023/10/29 00:32:24;;;;;;;5.82;1.80;;;;;;;10.30;100.00;99377.44;6275331;28;20056;-78
2023/10/29 00:35:26;;;;;;;3.38;1.80;;;;;;;10.40;100.00;99366.16;6275595;28;20056;-78
2023/10/29 00:38:28;;;;;;;5.13;2.40;;;;;;;10.36;100.00;99369.97;6275472;28;20056;-79
2023/10/29 00:41:31;;;;;;;4.07;2.25;;;;;;;10.36;100.00;99359.47;6275521;28;20132;-78
2023/10/29 00:44:32;;;;;;;3.25;1.80;;;;;;;10.33;100.00;99358.84;6275250;28;20049;-78
2023/10/29 00:47:34;;;;;;;2.92;2.00;;;;;;;10.34;100.00;99355.28;6275578;28;20049;-79
2023/10/29 00:50:35;;;;;;;6.65;2.03;;;;;;;10.37;100.00;99350.63;6275323;28;20049;-77
2023/10/29 00:53:37;;;;;;;5.57;1.55;;;;;;;10.42;100.00;99352.91;6274943;28;20437;-78
2023/10/29 00:56:40;;;;;;;2.42;1.52;;;;;;;10.41;100.00;99338.13;6275190;28;20441;-78
2023/10/29 00:59:41;;;;;;;2.70;1.70;;;;;;;10.39;100.00;99338.22;6277378;28;20049;-78
2023/10/29 01:02:43;;;;;;;2.63;1.90;;;;;;;10.47;100.00;99342.06;6280031;28;20041;-78
2023/10/29 01:05:45;;;;;;;1.90;1.67;;;;;;;10.43;100.00;99332.75;6280343;28;20049;-78
2023/10/29 01:08:46;;;;;;;3.55;1.65;;;;;;;10.38;100.00;99330.47;6280161;28;20063;-78
2023/10/29 01:11:49;;;;;;;1.40;1.23;;;;;;;10.38;100.00;99330.47;6279853;28;20045;-78
2023/10/29 01:14:51;;;;;;;3.55;1.58;;;;;;;10.42;100.00;99334.53;6279974;28;20052;-78
2023/10/29 01:17:52;;;;;;;4.47;1.60;;;;;;;10.42;100.00;99329.28;6279861;28;20074;-78
2023/10/29 01:20:53;;;;;;;1.83;1.33;;;;;;;10.42;100.00;99326.66;6279677;28;20350;-78
2023/10/29 01:23:55;;;;;;;1.83;1.50;;;;;;;10.43;100.00;99309.94;6279464;28;20056;-78
2023/10/29 01:26:58;;;;;;;2.75;1.30;;;;;;;10.48;100.00;99304.34;6279927;28;20353;-78
2023/10/29 01:29:59;;;;;;;4.10;1.80;;;;;;;10.43;100.00;99293.34;6279660;28;20045;-79
2023/10/29 01:33:00;;;;;;;3.60;1.70;;;;;;;10.51;100.00;99275.22;6279590;28;20361;-79
2023/10/29 01:36:02;;;;;;;5.38;1.75;;;;;;;10.51;100.00;99260.28;6279614;28;20068;-78
2023/10/29 01:39:04;;;;;;;4.05;1.50;;;;;;;10.51;100.00;99252.41;6279786;28;20049;-78
2023/10/29 01:42:07;;;;;;;4.10;1.77;;;;;;;10.54;100.00;99246.94;6279277;28;20048;-78
2023/10/29 01:45:11;;;;;;;1.67;1.27;;;;;;;10.55;100.00;99242.50;6279119;28;20059;-79
2023/10/29 01:48:13;;;;;;;2.05;1.70;;;;;;;10.53;100.00;99233.91;6279414;28;20055;-78
2023/10/29 01:51:14;;;;;;;2.20;1.58;;;;;;;10.54;100.00;99246.94;6279021;28;20056;-79
2023/10/29 01:54:16;;;;;;;2.65;1.63;;;;;;;10.56;100.00;99228.41;6278830;28;20357;-79
2023/10/29 01:57:18;;;;;;;2.95;1.67;;;;;;;10.59;100.00;99222.94;6279090;28;20049;-79
2023/10/29 02:00:20;;;;;;;5.22;1.30;;;;;;;10.61;100.00;99218.38;6278803;28;20053;-78
2023/10/29 02:03:21;;;;;;;2.58;1.60;;;;;;;10.63;100.00;99225.19;6278712;28;20056;-79
2023/10/29 02:06:23;;;;;;;2.63;1.58;;;;;;;10.64;100.00;99216.34;6278939;28;20334;-79
2023/10/29 02:09:24;;;;;;;5.10;1.50;;;;;;;10.63;100.00;99204.19;6278463;28;20049;-78
2023/10/29 02:12:27;;;;;;;2.58;1.33;;;;;;;10.66;100.00;99201.28;6278698;28;20044;-79
2023/10/29 02:15:28;;;;;;;2.17;1.38;;;;;;;10.72;100.00;99194.75;6278638;28;20045;-78
2023/10/29 02:18:30;;;;;;;2.10;1.42;;;;;;;10.74;100.00;99192.00;6278512;28;20049;-79
2023/10/29 02:21:31;;;;;;;1.40;1.30;;;;;;;10.73;100.00;99187.69;6278152;28;20361;-79
2023/10/29 02:24:34;;;;;;;2.05;1.30;;;;;;;10.73;100.00;99174.56;6278359;28;20041;-79
2023/10/29 02:27:36;;;;;;;2.53;1.55;;;;;;;10.70;100.00;99172.16;6278547;28;20072;-79
2023/10/29 02:30:37;;;;;;;2.47;1.38;;;;;;;10.72;100.00;99164.97;6278128;28;20060;-79
2023/10/29 02:33:38;;;;;;;3.05;1.60;;;;;;;10.77;100.00;99170.75;6278360;28;20056;-79
2023/10/29 02:36:40;;;;;;;4.10;1.30;;;;;;;10.78;100.00;99154.84;6278215;28;20048;-79
2023/10/29 02:39:43;;;;;;;3.00;1.55;;;;;;;10.77;100.00;99150.53;6278299;28;20072;-79
2023/10/29 02:42:44;;;;;;;2.60;1.23;;;;;;;10.83;100.00;99157.09;6277941;28;20170;-80
2023/10/29 02:45:46;;;;;;;1.70;1.30;;;;;;;10.85;100.00;99161.25;6277967;28;20053;-79
2023/10/29 02:48:47;;;;;;;2.50;1.60;;;;;;;10.89;100.00;99152.16;6278058;28;20048;-79
2023/10/29 02:51:48;;;;;;;4.63;1.80;;;;;;;10.92;100.00;99146.69;6277394;28;20060;-79
2023/10/29 02:54:51;;;;;;;1.55;1.17;;;;;;;10.95;100.00;99142.16;6278049;28;20455;-79
2023/10/29 02:57:53;;;;;;;5.10;1.67;;;;;;;10.96;100.00;99138.56;6277708;28;20122;-79
2023/10/29 03:00:54;;;;;;;2.38;1.15;;;;;;;10.99;100.00;99131.28;6277584;28;20053;-79
2023/10/29 03:03:55;;;;;;;3.50;1.23;;;;;;;11.06;100.00;99116.66;6277652;28;20041;-79
2023/10/29 03:06:57;;;;;;;1.13;1.02;;;;;;;11.05;100.00;99111.53;6277555;28;20357;-80
2023/10/29 03:10:00;;;;;;;2.95;1.33;;;;;;;10.95;100.00;99110.63;6277299;28;20053;-79
2023/10/29 03:13:01;;;;;;;1.30;0.88;;;;;;;11.05;100.00;99111.53;6277248;28;20059;-80
2023/10/29 03:16:03;;;;;;;2.83;0.95;;;;;;;11.03;100.00;99116.88;6277610;28;20052;-79
2023/10/29 03:19:05;;;;;;;1.35;1.05;;;;;;;11.04;100.00;99104.59;6277356;28;20044;-80
2023/10/29 03:22:06;;;;;;;1.33;0.80;;;;;;;11.09;100.00;99095.38;6276067;28;20052;-79
2023/10/29 03:25:09;;;;;;;1.13;0.70;;;;;;;11.14;100.00;99105.53;6276868;28;20049;-79
2023/10/29 03:28:11;;;;;;;1.60;0.77;;;;;;;11.17;100.00;99087.69;6277132;28;20060;-79
2023/10/29 03:31:13;;;;;;;1.15;0.90;;;;;;;11.20;100.00;99089.22;6276832;28;20056;-78
2023/10/29 03:34:14;;;;;;;0.60;0.60;;;;;;;11.25;100.00;99075.69;6277053;28;20045;-79
2023/10/29 03:37:16;;;;;;;1.42;0.90;;;;;;;11.31;100.00;99075.19;6276851;28;20049;-79
2023/10/29 03:40:19;;;;;;;3.40;0.88;;;;;;;11.28;100.00;99080.72;6276961;28;20139;-79
2023/10/29 03:43:20;;;;;;;1.67;0.90;;;;;;;11.25;100.00;99062.56;6276391;28;20052;-79
2023/10/29 03:46:22;;;;;;;4.38;0.73;;;;;;;11.21;100.00;99064.59;6276527;28;20060;-79
2023/10/29 03:49:24;;;;;;;2.20;0.77;;;;;;;11.17;100.00;99050.91;6276195;28;20352;-78
2023/10/29 03:52:25;;;;;;;1.00;0.90;;;;;;;11.22;100.00;99047.88;6275616;28;20048;-79
2023/10/29 03:55:28;;;;;;;0.93;0.70;;;;;;;11.24;100.00;99055.63;6276285;28;20395;-78
2023/10/29 03:58:29;;;;;;;2.35;0.88;;;;;;;11.24;100.00;99050.38;6276345;28;20049;-79
2023/10/29 04:01:31;;;;;;;5.07;1.00;;;;;;;11.21;100.00;99048.81;6276003;28;20441;-78
2023/10/29 04:04:33;;;;;;;0.65;0.60;;;;;;;11.22;100.00;99041.75;6276115;28;20147;-79
2023/10/29 04:07:34;;;;;;;0.70;0.63;;;;;;;11.22;100.00;99036.50;6276333;28;20045;-78
2023/10/29 04:10:37;;;;;;;1.10;0.80;;;;;;;11.27;100.00;99031.72;6276109;28;20456;-78
2023/10/29 04:13:38;;;;;;;1.17;0.85;;;;;;;11.24;100.00;99027.53;6275854;28;20048;-79
2023/10/29 04:16:40;;;;;;;0.98;0.73;;;;;;;11.28;100.00;99028.94;6276022;28;20053;-78
2023/10/29 04:19:41;;;;;;;0.88;0.75;;;;;;;11.33;100.00;99025.94;6276002;28;20060;-77
2023/10/29 04:22:43;;;;;;;2.72;0.98;;;;;;;11.35;100.00;99016.09;6275581;28;20049;-78
2023/10/29 04:25:46;;;;;;;0.60;0.60;;;;;;;11.35;100.00;99039.78;6275761;28;20049;-78
2023/10/29 04:28:47;;;;;;;2.47;0.60;;;;;;;11.40;100.00;99021.84;6275812;28;20053;-77
2023/10/29 04:31:49;;;;;;;1.15;0.80;;;;;;;11.45;100.00;99014.38;6275624;28;20057;-78
2023/10/29 04:34:50;;;;;;;1.30;0.75;;;;;;;11.46;100.00;99015.22;6275638;28;20049;-77
2023/10/29 04:37:52;;;;;;;6.18;0.98;;;;;;;11.50;100.00;99016.63;6275774;28;20049;-80
2023/10/29 04:40:54;;;;;;;2.15;0.60;;;;;;;11.49;100.00;99020.19;6275437;28;20056;-80
2023/10/29 04:43:56;;;;;;;3.30;0.80;;;;;;;11.54;100.00;99021.50;6275211;28;20357;-77
2023/10/29 04:46:57;;;;;;;2.10;0.80;;;;;;;11.60;100.00;99018.34;6275674;28;20060;-77
2023/10/29 04:49:59;;;;;;;1.13;0.70;;;;;;;11.65;100.00;99012.69;6275328;28;20052;-79
2023/10/29 04:53:02;;;;;;;1.70;0.70;;;;;;;11.65;100.00;99000.34;6275187;28;20056;-79
2023/10/29 04:56:05;;;;;;;1.90;0.90;;;;;;;11.63;100.00;99001.47;6275314;28;20134;-79
2023/10/29 04:59:07;;;;;;;1.50;0.82;;;;;;;11.64;100.00;98990.81;6275247;28;20048;-79
2023/10/29 05:02:08;;;;;;;0.90;0.70;;;;;;;11.61;100.00;98988.44;6275338;28;20060;-79
2023/10/29 05:05:11;;;;;;;2.13;0.85;;;;;;;11.61;100.00;98991.06;6275202;28;20045;-79
2023/10/29 05:08:12;;;;;;;1.90;0.73;;;;;;;11.59;100.00;98987.75;6275299;28;20445;-79
2023/10/29 05:11:15;;;;;;;2.20;0.60;;;;;;;11.59;100.00;98994.81;6275313;28;20053;-79
2023/10/29 05:14:16;;;;;;;1.27;0.82;;;;;;;11.57;100.00;98994.91;6275508;28;20045;-79
2023/10/29 05:17:18;;;;;;;1.00;0.85;;;;;;;11.56;100.00;98989.78;6275158;28;20442;-79
2023/10/29 05:20:19;;;;;;;0.80;0.70;;;;;;;11.47;100.00;98988.78;6275194;28;20049;-79
2023/10/29 05:23:21;;;;;;;5.35;1.05;;;;;;;11.47;100.00;99001.94;6274634;28;20425;-79
2023/10/29 05:26:23;;;;;;;0.93;0.80;;;;;;;11.44;100.00;99004.81;6275101;28;20342;-78
2023/10/29 05:29:26;;;;;;;0.75;0.52;;;;;;;11.46;100.00;99007.34;6275105;28;20059;-79
2023/10/29 05:32:28;;;;;;;0.90;0.55;;;;;;;11.51;100.00;98998.06;6274850;28;20059;-79
2023/10/29 05:35:30;;;;;;;1.33;0.75;;;;;;;11.53;100.00;99011.09;6274997;28;20045;-80
2023/10/29 05:38:31;;;;;;;2.05;0.70;;;;;;;11.63;100.00;99014.63;6274866;28;20045;-79
2023/10/29 05:41:34;;;;;;;4.47;0.70;;;;;;;11.62;100.00;99012.94;6274751;28;20057;-79
2023/10/29 05:44:35;;;;;;;0.77;0.63;;;;;;;11.65;100.00;99015.31;6274880;28;20055;-79
2023/10/29 05:47:37;;;;;;;1.42;0.70;;;;;;;11.62;100.00;99008.50;6279822;28;20460;-79
2023/10/29 05:50:38;;;;;;;1.90;0.70;;;;;;;11.72;100.00;99016.47;6279386;28;20128;-79
2023/10/29 05:53:40;;;;;;;1.05;0.50;;;;;;;11.79;100.00;99022.84;6279561;28;20045;-79
2023/10/29 05:56:42;;;;;;;1.00;0.60;;;;;;;11.91;100.00;99042.06;6279320;28;20064;-78
2023/10/29 05:59:44;;;;;;;1.95;0.60;;;;;;;11.93;100.00;99032.22;6279260;28;20052;-78
2023/10/29 06:02:46;;;;;;;2.13;0.68;;;;;;;11.99;100.00;99020.31;6278854;28;20045;-78
2023/10/29 06:05:47;;;;;;;1.20;0.73;;;;;;;11.99;100.00;99034.34;6279058;28;20079;-79
2023/10/29 06:08:49;;;;;;;0.90;0.70;;;;;;;11.93;100.00;99024.31;6279009;28;20059;-79
2023/10/29 06:11:52;;;;;;;0.88;0.43;;;;;;;12.01;100.00;99031.56;6278580;28;20045;-80
2023/10/29 06:14:54;;;;;;;1.48;0.85;;;;;;;12.00;100.00;99028.09;6278652;28;20471;-79
2023/10/29 06:17:55;;;;;;;1.23;0.75;;;;;;;12.01;100.00;99027.13;6278633;28;20049;-79
2023/10/29 06:20:56;;;;;;;1.73;0.70;;;;;;;12.02;100.00;99026.16;6278379;28;20110;-77
2023/10/29 06:23:58;;;;;;;1.23;0.82;;;;;;;12.13;100.00;99035.78;6278166;28;20045;-78
2023/10/29 06:27:02;;;;;;;0.55;0.45;;;;;;;12.07;100.00;99031.84;6278543;28;20048;-79
2023/10/29 06:30:04;;;;;;;1.92;0.50;;;;;;;12.09;100.00;99035.19;6278299;28;20052;-79
2023/10/29 06:33:05;;;;;;;1.45;0.80;;;;;;;12.08;100.00;99017.75;6278459;28;20060;-76
2023/10/29 06:36:07;;;;;;;1.60;0.60;;;;;;;12.07;100.00;99033.66;6278161;28;20056;-78
2023/10/29 06:39:09;;;;;;;1.67;0.55;;;;;;;12.08;100.00;99046.72;6278113;28;20061;-78
2023/10/29 06:42:12;;;;;;;3.78;0.85;;;;;;;12.06;100.00;99045.16;6278187;28;20053;-79
2023/10/29 06:45:14;;;;;;;1.23;0.43;;;;;;;12.11;100.00;99050.84;6277557;28;20056;-79
2023/10/29 06:48:15;;;;;;;2.85;0.70;;;;;;;12.14;100.00;99050.59;6277995;28;20056;-79
2023/10/29 06:51:19;;;;;;;1.27;0.60;;;;;;;12.06;100.00;99043.34;6277602;28;20049;-79
2023/10/29 06:54:20;;;;;;;3.08;0.50;;;;;;;12.03;100.00;99048.88;6277712;28;20128;-79
2023/10/29 06:57:23;;;;;;;2.00;0.60;;;;;;;12.01;100.00;99044.72;6276652;28;20055;-78
2023/10/29 07:00:24;;;;;;;0.65;0.60;;;;;;;12.01;100.00;99050.81;6277682;28;20048;-78
2023/10/29 07:03:26;;;;;;;0.70;0.60;;;;;;;12.03;100.00;99046.25;6277293;28;20134;-78
2023/10/29 07:06:27;;;;;;;1.65;1.00;;;;;;;11.99;100.00;99042.25;6277618;28;20053;-79
2023/10/29 07:09:28;;;;;;;0.68;0.40;;;;;;;11.99;100.00;99044.00;6277357;28;20045;-78
2023/10/29 07:12:32;;;;;;;4.28;0.55;;;;;;;12.00;100.00;99050.97;6277427;28;20048;-78
2023/10/29 07:15:33;;;;;;;4.35;0.90;;;;;;;12.04;100.00;99049.75;6277326;28;20052;-77
2023/10/29 07:18:36;;;;;;;0.95;0.50;;;;;;;12.09;100.00;99050.19;6277187;28;20048;-77
2023/10/29 07:21:38;;;;;;;2.83;0.85;;;;;;;12.09;100.00;99042.28;6276685;28;20049;-77
2023/10/29 07:24:39;;;;;;;3.45;0.65;;;;;;;12.07;100.00;99044.19;6277171;28;20041;-79
2023/10/29 07:27:42;;;;;;;0.80;0.40;;;;;;;12.08;100.00;99041.44;6276928;28;20349;-76
2023/10/29 07:30:43;;;;;;;2.20;0.88;;;;;;;12.09;100.00;99045.75;6276833;28;20056;-78
2023/10/29 07:33:45;;;;;;;1.85;0.70;;;;;;;12.13;100.00;99046.31;6276946;28;20053;-78
2023/10/29 07:36:46;;;;;;;2.13;0.60;;;;;;;12.11;100.00;99058.75;6276650;28;20045;-79
2023/10/29 07:39:48;;;;;;;1.60;0.45;;;;;;;12.12;100.00;99063.88;6276529;28;20049;-78
2023/10/29 07:42:50;;;;;;;2.08;0.75;;;;;;;12.15;100.00;99068.06;6276660;28;20053;-77
2023/10/29 07:45:52;;;;;;;1.92;0.60;;;;;;;12.18;100.00;99057.28;6276454;28;20052;-78
2023/10/29 07:48:54;;;;;;;1.25;0.60;;;;;;;12.19;100.00;99062.41;6276536;28;20063;-78
2023/10/29 07:51:55;;;;;;;0.75;0.50;;;;;;;12.18;100.00;99062.53;6275870;28;20052;-77
2023/10/29 07:54:57;;;;;;;2.00;1.00;;;;;;;12.22;100.00;99070.97;6276451;28;20045;-80
2023/10/29 07:58:00;;;;;;;1.45;0.70;;;;;;;12.22;100.00;99069.22;6276297;28;20131;-78
2023/10/29 08:01:01;;;;;;;0.75;0.47;;;;;;;12.31;100.00;99072.81;6276087;28;20053;-78
2023/10/29 08:04:03;;;;;;;0.90;0.60;;;;;;;12.28;100.00;99076.56;6276154;28;20040;-78
2023/10/29 08:07:04;;;;;;;1.33;0.63;;;;;;;12.28;100.00;99070.47;6276263;28;20053;-78
2023/10/29 08:10:07;;;;;;;1.83;0.80;;;;;;;12.28;100.00;99076.56;6275570;28;20326;-78
2023/10/29 08:13:10;;;;;;;1.20;0.52;;;;;;;12.35;100.00;99088.25;6276169;28;20061;-78
2023/10/29 08:16:12;;;;;;;1.95;0.65;;;;;;;12.39;100.00;99080.88;6275791;28;20041;-78
2023/10/29 08:19:13;;;;;;;1.65;0.73;;;;;;;12.40;100.00;99082.56;6276017;28;20182;-78
2023/10/29 08:22:15;;;;;;;1.55;0.45;;;;;;;12.43;100.00;99088.38;6275105;28;20060;-78
2023/10/29 08:25:16;;;;;;;3.38;0.68;;;;;;;12.48;100.00;99081.88;6275489;28;20053;-77
2023/10/29 08:28:20;;;;;;;0.90;0.57;;;;;;;12.50;100.00;99087.88;6275749;28;20053;-77
2023/10/29 08:31:21;;;;;;;3.20;0.52;;;;;;;12.50;100.00;99098.41;6275282;28;20342;-77
2023/10/29 08:34:23;;;;;;;0.85;0.60;;;;;;;12.46;100.00;99087.31;6275618;28;20044;-77
2023/10/29 08:37:25;;;;;;;2.58;0.70;;;;;;;12.51;100.00;99092.16;6275501;28;20048;-77
2023/10/29 08:40:26;;;;;;;0.73;0.60;;;;;;;12.52;100.00;99099.09;6275621;28;20092;-77
2023/10/29 08:43:29;;;;;;;3.40;0.68;;;;;;;12.41;100.00;99090.34;6275077;28;20053;-77
2023/10/29 08:46:30;;;;;;;0.68;0.40;;;;;;;12.52;100.00;99091.19;6275234;28;20345;-77
2023/10/29 08:49:32;;;;;;;1.92;0.60;;;;;;;12.58;100.00;99080.09;6275186;28;20049;-78
2023/10/29 08:52:33;;;;;;;2.40;0.68;;;;;;;12.68;100.00;99066.00;6275045;28;20048;-78
2023/10/29 08:55:35;;;;;;;2.53;0.60;;;;;;;12.73;100.00;99084.03;6275254;28;20045;-77
2023/10/29 08:58:37;;;;;;;0.73;0.68;;;;;;;12.75;100.00;99095.25;6274948;28;20330;-77
2023/10/29 09:01:39;;;;;;;0.63;0.60;;;;;;;12.76;100.00;99123.28;6275057;28;20060;-78
2023/10/29 09:04:40;;;;;;;0.75;0.50;;;;;;;12.81;100.00;99126.38;6274776;28;20438;-77
2023/10/29 09:07:42;;;;;;;0.77;0.50;;;;;;;12.90;100.00;99143.19;6274790;28;20056;-77
2023/10/29 09:10:45;;;;;;;1.50;0.65;;;;;;;12.81;100.00;99165.91;6274683;28;20053;-78
2023/10/29 09:13:48;;;;;;;1.60;0.50;;;;;;;13.00;100.00;99167.75;6275078;28;20045;-78
2023/10/29 09:16:49;;;;;;;1.77;0.60;;;;;;;12.99;100.00;99160.81;6275004;28;20068;-78
2023/10/29 09:19:50;;;;;;;2.92;0.77;;;;;;;12.99;100.00;99162.59;6275869;28;20049;-78
2023/10/29 09:22:52;;;;;;;1.02;0.40;;;;;;;13.08;100.00;99160.00;6279448;28;20053;-78
2023/10/29 09:25:54;;;;;;;1.30;0.65;;;;;;;13.17;100.00;99163.59;6279991;28;20049;-78
2023/10/29 09:28:56;;;;;;;2.03;0.52;;;;;;;13.17;100.00;99166.22;6279699;28;20052;-78
2023/10/29 09:31:58;;;;;;;3.05;0.50;;;;;;;13.23;100.00;99152.53;6279428;28;20049;-78
2023/10/29 09:34:59;;;;;;;1.45;0.50;;;;;;;13.23;100.00;99163.09;6279707;28;20045;-79
2023/10/29 09:38:01;;;;;;;1.13;0.38;;;;;;;13.30;100.00;99172.09;6279488;28;20052;-78
2023/10/29 09:41:04;;;;;;;1.48;0.30;;;;;;;13.36;100.00;99174.22;6279377;28;20056;-78
2023/10/29 09:44:08;;;;;;;1.48;0.60;;;;;;;13.43;100.00;99175.31;6279123;28;20049;-77
2023/10/29 09:47:14;;;;;;;4.45;1.58;;;;;;;13.33;100.00;99184.19;6279484;28;20112;-78
2023/10/29 09:50:16;;;;;;;1.25;0.65;;;;;;;13.49;100.00;99184.50;6279455;28;20049;-77
2023/10/29 09:53:19;;;;;;;1.08;0.55;;;;;;;13.58;100.00;99194.22;6279000;28;20052;-76
2023/10/29 09:56:21;;;;;;;4.57;0.55;;;;;;;13.61;100.00;99199.22;6279087;28;20072;-77
2023/10/29 09:59:24;;;;;;;1.95;0.30;;;;;;;13.73;100.00;99202.53;6279322;28;20049;-77
2023/10/29 10:02:26;;;;;;;2.55;0.40;;;;;;;13.84;100.00;99210.31;6279205;28;20049;-76
2023/10/29 10:05:29;;;;;;;0.95;0.40;;;;;;;13.91;100.00;99215.88;6279046;28;20258;-77
2023/10/29 10:08:32;;;;;;;5.60;1.48;;;;;;;14.04;100.00;99226.16;6278927;28;20172;-77
2023/10/29 10:11:34;;;;;;;3.38;0.50;;;;;;;14.06;100.00;99230.31;6278598;28;20147;-77
2023/10/29 10:14:38;;;;;;;1.67;0.43;;;;;;;14.12;100.00;99227.09;6278792;28;20045;-78
2023/10/29 10:17:39;;;;;;;0.70;0.35;;;;;;;14.21;100.00;99231.53;6278593;28;20071;-78
2023/10/29 10:20:40;;;;;;;1.00;0.32;;;;;;;14.29;100.00;99230.00;6278576;28;20049;-77
2023/10/29 10:23:47;;;;;;;1.25;0.60;;;;;;;14.23;100.00;99238.50;6278169;28;20060;-77
2023/10/29 10:26:48;;;;;;;2.05;0.60;;;;;;;14.17;100.00;99222.25;6278492;28;20048;-78
2023/10/29 10:29:51;;;;;;;1.35;0.40;;;;;;;14.14;100.00;99229.59;6278252;28;20053;-77
2023/10/29 10:32:53;;;;;;;4.18;1.55;;;;;;;14.24;100.00;99227.78;6277886;28;20076;-77
2023/10/29 10:35:55;;;;;;;2.45;0.75;;;;;;;14.12;100.00;99240.28;6278371;28;20049;-77
2023/10/29 10:38:56;;;;;;;1.13;0.50;;;;;;;14.15;100.00;99260.31;6278338;28;20091;-78
2023/10/29 10:42:00;;;;;;;1.13;0.50;;;;;;;14.09;100.00;99245.06;6277784;28;20563;-77
2023/10/29 10:45:04;;;;;;;3.13;0.70;;;;;;;14.22;100.00;99235.03;6277928;28;20045;-74
2023/10/29 10:48:06;;;;;;;2.97;0.40;;;;;;;14.32;100.00;99240.28;6278020;28;20052;-75
2023/10/29 10:51:11;;;;;;;1.08;0.60;;;;;;;14.45;100.00;99246.91;6277549;28;20045;-74
2023/10/29 10:54:13;;;;;;;1.65;0.43;;;;;;;14.52;100.00;99246.38;6277639;28;20049;-75
2023/10/29 10:57:15;;;;;;;2.08;0.50;;;;;;;14.47;100.00;99230.91;6277840;28;20480;-75
2023/10/29 11:00:19;;;;;;;2.75;0.47;;;;;;;14.40;100.00;99229.84;6277602;28;20053;-74
2023/10/29 11:03:23;;;;;;;1.23;0.60;;;;;;;14.31;100.00;99222.75;6277624;28;20045;-73
2023/10/29 11:06:25;;;;;;;2.35;0.40;;;;;;;14.31;100.00;99225.41;6277617;28;20056;-73
2023/10/29 11:09:28;;;;;;;8.02;0.65;;;;;;;14.34;100.00;99219.81;6277454;28;20053;-75
2023/10/29 11:12:33;;;;;;;1.08;0.47;;;;;;;14.42;100.00;99220.78;6277343;28;20060;-74
2023/10/29 11:15:46;;;;;;;1.50;0.45;;;;;;;14.60;100.00;99243.84;6277157;28;20053;-73
2023/10/29 11:18:48;;;;;;;1.58;0.57;;;;;;;14.64;100.00;99239.94;6277406;28;20080;-75
2023/10/29 11:22:19;;;;;;;0.85;0.40;;;;;;;14.53;100.00;99232.16;6276621;28;20053;-75
2023/10/29 11:25:39;;;;;;;2.58;0.20;;;;;;;14.41;100.00;99228.84;6277041;28;20045;-75
2023/10/29 11:28:45;;;;;;;0.73;0.40;;;;;;;14.35;100.00;99224.13;6276997;28;20114;-75
2023/10/29 11:31:47;;;;;;;2.40;0.88;;;;;;;14.37;100.00;99215.09;6276985;28;20053;-75
2023/10/29 11:34:49;;;;;;;6.07;0.50;;;;;;;14.36;100.00;99226.63;6276746;28;20056;-75
2023/10/29 11:37:52;;;;;;;0.85;0.32;;;;;;;14.32;100.00;99235.81;6276913;28;20056;-76
2023/10/29 11:40:53;;;;;;;1.98;0.63;;;;;;;14.56;100.00;99231.88;6276397;28;20069;-75
2023/10/29 11:44:21;;;;;;;1.73;0.65;;;;;;;14.68;100.00;99236.84;6275967;28;20055;-73
2023/10/29 11:47:25;;;;;;;0.88;0.40;;;;;;;14.78;100.00;99225.41;6276751;28;20128;-71
2023/10/29 11:50:27;;;;;;;0.35;0.30;;;;;;;14.85;100.00;99224.69;6276464;28;20049;-75
2023/10/29 11:53:29;;;;;;;4.18;0.60;;;;;;;14.88;100.00;99220.91;6275863;28;20056;-76
2023/10/29 11:56:34;;;;;;;4.95;0.65;;;;;;;14.74;100.00;99221.38;6276513;28;20045;-73
2023/10/29 11:59:35;;;;;;;1.63;0.50;;;;;;;14.83;100.00;99218.69;6276122;28;20049;-75
2023/10/29 12:02:38;;;;;;;3.85;0.30;;;;;;;15.06;100.00;99227.06;6276193;28;20056;-75
2023/10/29 12:05:40;;;;;;;1.98;0.30;;;;;;;15.15;100.00;99233.28;6275970;28;20048;-75
2023/10/29 12:08:42;;;;;;;1.80;0.50;;;;;;;15.06;100.00;99235.00;6276266;28;20441;-75
2023/10/29 12:11:43;;;;;;;1.33;0.68;;;;;;;15.03;100.00;99240.59;6275693;28;20354;-75
2023/10/29 12:14:46;;;;;;;1.00;0.50;;;;;;;14.91;100.00;99245.25;6275800;28;20354;-74
2023/10/29 12:17:49;;;;;;;0.93;0.45;;;;;;;14.94;100.00;99259.97;6275960;28;20059;-77
2023/10/29 12:20:51;;;;;;;0.40;0.28;;;;;;;14.88;100.00;99242.06;6275827;28;20053;-75
2023/10/29 12:23:52;;;;;;;1.23;0.40;;;;;;;14.90;100.00;99235.66;6275828;28;20048;-76
2023/10/29 12:26:54;;;;;;;1.75;0.40;;;;;;;14.99;100.00;99226.00;6275602;28;20044;-74
2023/10/29 12:29:55;;;;;;;0.82;0.25;;;;;;;15.04;100.00;99218.47;6275656;28;20060;-75
2023/10/29 12:33:17;;;;;;;0.30;0.22;;;;;;;15.11;100.00;99216.03;6275423;28;20045;-75
2023/10/29 12:36:18;;;;;;;1.00;0.30;;;;;;;15.09;100.00;99218.00;6275479;28;20445;-75
2023/10/29 12:39:20;;;;;;;1.17;0.30;;;;;;;14.98;100.00;99219.03;6275461;28;20060;-74
2023/10/29 12:42:22;;;;;;;1.13;0.40;;;;;;;15.12;100.00;99223.81;6275286;28;20056;-75
2023/10/29 12:45:24;;;;;;;1.25;0.25;;;;;;;15.26;100.00;99224.28;6275142;28;20048;-75
2023/10/29 12:48:27;;;;;;;0.63;0.40;;;;;;;15.43;100.00;99213.72;6275474;28;20056;-75
2023/10/29 12:51:31;;;;;;;0.80;0.52;;;;;;;15.32;100.00;99215.78;6274815;28;20052;-75
2023/10/29 12:54:33;;;;;;;2.63;0.20;;;;;;;15.36;100.00;99217.97;6274225;28;20489;-73
2023/10/29 12:57:35;;;;;;;1.33;0.63;;;;;;;15.38;100.00;99223.94;6275186;28;20048;-74
2023/10/29 13:00:37;;;;;;;3.60;0.60;;;;;;;15.40;100.00;99208.75;6275363;28;20073;-74
2023/10/29 13:03:39;;;;;;;0.68;0.32;;;;;;;15.21;100.00;99203.56;6274910;28;20429;-74
2023/10/29 13:06:41;;;;;;;1.10;0.32;;;;;;;14.98;100.00;99190.75;6275076;28;20049;-75
2023/10/29 13:09:42;;;;;;;1.58;0.50;;;;;;;14.80;100.00;99194.34;6275156;28;20132;-72
2023/10/29 13:12:44;;;;;;;0.63;0.43;;;;;;;14.83;100.00;99204.63;6274847;28;20437;-72
2023/10/29 13:15:45;;;;;;;1.35;0.47;;;;;;;14.91;100.00;99188.88;6275029;28;20398;-74
2023/10/29 13:18:48;;;;;;;1.70;0.60;;;;;;;15.20;100.00;99178.09;6275197;28;20337;-75
2023/10/29 13:21:51;;;;;;;0.32;0.20;;;;;;;15.34;100.00;99182.88;6274622;28;20056;-75
2023/10/29 13:24:55;;;;;;;2.20;0.50;;;;;;;15.58;100.00;99179.63;6274778;28;20072;-75
2023/10/29 13:27:56;;;;;;;0.88;0.68;;;;;;;15.66;100.00;99182.38;6275019;28;20053;-75
2023/10/29 13:30:58;;;;;;;0.50;0.30;;;;;;;15.54;100.00;99188.03;6274628;28;20057;-75
2023/10/29 13:34:00;;;;;;;1.73;0.47;;;;;;;15.42;100.00;99188.25;6275005;28;20053;-75
2023/10/29 13:37:02;;;;;;;0.55;0.32;;;;;;;15.26;100.00;99200.47;6274821;28;20045;-74
2023/10/29 13:40:04;;;;;;;1.13;0.45;;;;;;;15.05;100.00;99188.38;6274765;28;20353;-75
2023/10/29 13:43:06;;;;;;;0.55;0.40;;;;;;;15.02;100.00;99183.38;6274789;28;20067;-75
2023/10/29 13:46:07;;;;;;;1.23;0.38;;;;;;;14.97;100.00;99180.34;6274649;28;20056;-75
2023/10/29 13:49:10;;;;;;;3.85;0.80;;;;;;;14.91;100.00;99162.44;6274780;28;20349;-75
2023/10/29 13:52:11;;;;;;;0.95;0.40;;;;;;;14.86;100.00;99173.44;6274163;28;20049;-74
2023/10/29 13:55:13;;;;;;;5.55;0.43;;;;;;;14.96;100.00;99166.28;6274529;28;20045;-74
2023/10/29 13:58:14;;;;;;;0.82;0.40;;;;;;;14.92;100.00;99167.56;6274464;28;20044;-73
2023/10/29 14:01:17;;;;;;;0.60;0.40;;;;;;;15.00;100.00;99147.47;6274628;28;20472;-72
2023/10/29 14:04:20;;;;;;;0.98;0.38;;;;;;;14.94;100.00;99155.03;6274308;28;20388;-75
2023/10/29 14:07:21;;;;;;;0.30;0.30;;;;;;;15.02;100.00;99164.84;6277246;28;20056;-76